Viborg, Denmark
Current Conditions -  °F | °C
As of 3:50 AM on Wednesday 26 Nov 2014 (Local Time) from EKKA Reporting Station
Light Fog Light Fog  
Wind Chill: 37°   Ceiling: Unl
Heat Index: 37°   Visibility: 0.25mi
Dew Point: 37°   Wind: 3mph
Humidity: 100%   Direction: 150°SSE
Pressure: 30.27"   Gusts: NA
Location:  56.45°N, 9.4°E
Report Text: EKKA 260250Z 15003KT 0400 R09/P2000N R27/P2000N BCFG FEW02503/03 Q1025
Loading
Personal Weather Stations






























Interactive Weather Map New forecast layout! Learn more

10-Day Weather Forecast

Advertisements
Track Severe Weather on mobile